sensor_id;sensor_type;location;lat;lon;timestamp;P1;durP1;ratioP1;P2;durP2;ratioP2
53299;SDS011;39187;48.476;8.310;2024-03-02T00:00:20;3.77;;;3.60;;
53299;SDS011;39187;48.476;8.310;2024-03-02T00:02:48;4.10;;;3.90;;
53299;SDS011;39187;48.476;8.310;2024-03-02T00:05:15;3.60;;;3.50;;
53299;SDS011;39187;48.476;8.310;2024-03-02T00:07:43;3.73;;;3.47;;
53299;SDS011;39187;48.476;8.310;2024-03-02T00:10:11;4.17;;;3.80;;
53299;SDS011;39187;48.476;8.310;2024-03-02T00:12:41;3.20;;;3.10;;
53299;SDS011;39187;48.476;8.310;2024-03-02T00:15:41;3.60;;;3.40;;
53299;SDS011;39187;48.476;8.310;2024-03-02T00:18:12;3.70;;;3.50;;
53299;SDS011;39187;48.476;8.310;2024-03-02T00:21:05;3.87;;;3.67;;
53299;SDS011;39187;48.476;8.310;2024-03-02T00:23:34;3.90;;;3.80;;
53299;SDS011;39187;48.476;8.310;2024-03-02T00:26:00;3.97;;;3.70;;
53299;SDS011;39187;48.476;8.310;2024-03-02T00:28:36;4.53;;;4.33;;
53299;SDS011;39187;48.476;8.310;2024-03-02T00:31:06;4.33;;;4.03;;
53299;SDS011;39187;48.476;8.310;2024-03-02T00:33:36;5.13;;;4.83;;
53299;SDS011;39187;48.476;8.310;2024-03-02T00:36:16;5.50;;;5.10;;
53299;SDS011;39187;48.476;8.310;2024-03-02T00:38:51;5.07;;;4.77;;
53299;SDS011;39187;48.476;8.310;2024-03-02T00:41:22;4.10;;;3.80;;
53299;SDS011;39187;48.476;8.310;2024-03-02T00:44:01;3.63;;;3.40;;
53299;SDS011;39187;48.476;8.310;2024-03-02T00:46:38;3.97;;;3.73;;
53299;SDS011;39187;48.476;8.310;2024-03-02T00:49:25;4.10;;;3.90;;
53299;SDS011;39187;48.476;8.310;2024-03-02T00:51:52;3.87;;;3.67;;
53299;SDS011;39187;48.476;8.310;2024-03-02T00:54:22;3.87;;;3.67;;
53299;SDS011;39187;48.476;8.310;2024-03-02T00:56:51;3.63;;;3.43;;
53299;SDS011;39187;48.476;8.310;2024-03-02T00:59:20;3.37;;;3.17;;
53299;SDS011;39187;48.476;8.310;2024-03-02T01:01:47;3.93;;;3.73;;
53299;SDS011;39187;48.476;8.310;2024-03-02T01:04:14;4.30;;;3.90;;
53299;SDS011;39187;48.476;8.310;2024-03-02T01:06:40;4.10;;;3.80;;
53299;SDS011;39187;48.476;8.310;2024-03-02T01:09:07;3.00;;;2.90;;
53299;SDS011;39187;48.476;8.310;2024-03-02T01:11:33;3.60;;;3.40;;
53299;SDS011;39187;48.476;8.310;2024-03-02T01:13:58;3.00;;;2.90;;
53299;SDS011;39187;48.476;8.310;2024-03-02T01:16:24;3.33;;;3.13;;
53299;SDS011;39187;48.476;8.310;2024-03-02T01:18:50;3.30;;;3.10;;
53299;SDS011;39187;48.476;8.310;2024-03-02T01:21:15;3.57;;;3.37;;
53299;SDS011;39187;48.476;8.310;2024-03-02T01:23:41;4.00;;;3.80;;
53299;SDS011;39187;48.476;8.310;2024-03-02T01:26:06;3.50;;;3.30;;
53299;SDS011;39187;48.476;8.310;2024-03-02T01:28:32;3.17;;;2.97;;
53299;SDS011;39187;48.476;8.310;2024-03-02T01:30:58;3.93;;;3.73;;
53299;SDS011;39187;48.476;8.310;2024-03-02T01:33:23;4.00;;;3.80;;
53299;SDS011;39187;48.476;8.310;2024-03-02T01:35:49;3.73;;;3.53;;
53299;SDS011;39187;48.476;8.310;2024-03-02T01:38:15;3.90;;;3.70;;
53299;SDS011;39187;48.476;8.310;2024-03-02T01:40:40;3.43;;;3.33;;
53299;SDS011;39187;48.476;8.310;2024-03-02T01:43:07;4.57;;;4.23;;
53299;SDS011;39187;48.476;8.310;2024-03-02T01:45:33;3.83;;;3.63;;
53299;SDS011;39187;48.476;8.310;2024-03-02T01:48:01;3.63;;;3.33;;
53299;SDS011;39187;48.476;8.310;2024-03-02T01:50:31;3.50;;;3.30;;
53299;SDS011;39187;48.476;8.310;2024-03-02T01:52:58;3.17;;;3.07;;
53299;SDS011;39187;48.476;8.310;2024-03-02T01:55:24;3.57;;;3.23;;
53299;SDS011;39187;48.476;8.310;2024-03-02T01:57:50;1.90;;;1.80;;
53299;SDS011;39187;48.476;8.310;2024-03-02T02:00:17;3.33;;;3.03;;
53299;SDS011;39187;48.476;8.310;2024-03-02T02:02:44;2.43;;;2.33;;
53299;SDS011;39187;48.476;8.310;2024-03-02T02:05:10;2.00;;;1.90;;
53299;SDS011;39187;48.476;8.310;2024-03-02T02:07:36;1.70;;;1.60;;
53299;SDS011;39187;48.476;8.310;2024-03-02T02:10:02;2.37;;;2.20;;
53299;SDS011;39187;48.476;8.310;2024-03-02T02:12:27;1.67;;;1.57;;
53299;SDS011;39187;48.476;8.310;2024-03-02T02:14:53;2.20;;;2.10;;
53299;SDS011;39187;48.476;8.310;2024-03-02T02:17:19;1.90;;;1.77;;
53299;SDS011;39187;48.476;8.310;2024-03-02T02:19:45;1.40;;;1.40;;
53299;SDS011;39187;48.476;8.310;2024-03-02T02:22:10;1.73;;;1.63;;
53299;SDS011;39187;48.476;8.310;2024-03-02T02:24:39;1.93;;;1.30;;
53299;SDS011;39187;48.476;8.310;2024-03-02T02:27:07;2.03;;;1.43;;
53299;SDS011;39187;48.476;8.310;2024-03-02T02:29:34;1.77;;;1.50;;
53299;SDS011;39187;48.476;8.310;2024-03-02T02:31:59;1.63;;;1.53;;
53299;SDS011;39187;48.476;8.310;2024-03-02T02:34:25;2.03;;;1.93;;
53299;SDS011;39187;48.476;8.310;2024-03-02T02:36:50;1.97;;;1.87;;
53299;SDS011;39187;48.476;8.310;2024-03-02T02:39:17;1.60;;;1.50;;
53299;SDS011;39187;48.476;8.310;2024-03-02T02:41:45;1.43;;;1.33;;
53299;SDS011;39187;48.476;8.310;2024-03-02T02:44:11;1.77;;;1.67;;
53299;SDS011;39187;48.476;8.310;2024-03-02T02:46:40;4.70;;;1.50;;
53299;SDS011;39187;48.476;8.310;2024-03-02T02:49:06;1.60;;;1.50;;
53299;SDS011;39187;48.476;8.310;2024-03-02T02:51:31;1.60;;;1.50;;
53299;SDS011;39187;48.476;8.310;2024-03-02T02:53:57;1.97;;;1.87;;
53299;SDS011;39187;48.476;8.310;2024-03-02T02:56:23;1.40;;;1.30;;
53299;SDS011;39187;48.476;8.310;2024-03-02T02:58:48;1.50;;;1.40;;
53299;SDS011;39187;48.476;8.310;2024-03-02T03:01:15;1.47;;;1.37;;
53299;SDS011;39187;48.476;8.310;2024-03-02T03:03:43;3.53;;;1.43;;
53299;SDS011;39187;48.476;8.310;2024-03-02T03:06:09;1.30;;;1.30;;
53299;SDS011;39187;48.476;8.310;2024-03-02T03:08:35;1.80;;;1.70;;
53299;SDS011;39187;48.476;8.310;2024-03-02T03:11:00;1.13;;;1.13;;
53299;SDS011;39187;48.476;8.310;2024-03-02T03:13:25;1.63;;;1.47;;
53299;SDS011;39187;48.476;8.310;2024-03-02T03:15:51;1.30;;;1.00;;
53299;SDS011;39187;48.476;8.310;2024-03-02T03:18:17;1.73;;;1.63;;
53299;SDS011;39187;48.476;8.310;2024-03-02T03:20:43;1.33;;;1.33;;
53299;SDS011;39187;48.476;8.310;2024-03-02T03:23:09;1.70;;;1.60;;
53299;SDS011;39187;48.476;8.310;2024-03-02T03:25:34;1.80;;;1.13;;
53299;SDS011;39187;48.476;8.310;2024-03-02T03:28:00;1.33;;;1.23;;
53299;SDS011;39187;48.476;8.310;2024-03-02T03:30:26;0.87;;;0.70;;
53299;SDS011;39187;48.476;8.310;2024-03-02T03:32:52;1.27;;;1.27;;
53299;SDS011;39187;48.476;8.310;2024-03-02T03:35:17;1.87;;;1.20;;
53299;SDS011;39187;48.476;8.310;2024-03-02T03:37:43;1.00;;;1.00;;
53299;SDS011;39187;48.476;8.310;2024-03-02T03:40:09;1.77;;;1.67;;
53299;SDS011;39187;48.476;8.310;2024-03-02T03:42:38;1.10;;;1.10;;
53299;SDS011;39187;48.476;8.310;2024-03-02T03:45:04;1.50;;;1.40;;
53299;SDS011;39187;48.476;8.310;2024-03-02T03:47:31;0.97;;;0.97;;
53299;SDS011;39187;48.476;8.310;2024-03-02T03:49:57;1.17;;;1.07;;
53299;SDS011;39187;48.476;8.310;2024-03-02T03:52:23;0.97;;;0.97;;
53299;SDS011;39187;48.476;8.310;2024-03-02T03:54:48;1.60;;;1.00;;
53299;SDS011;39187;48.476;8.310;2024-03-02T03:57:14;1.10;;;1.03;;
53299;SDS011;39187;48.476;8.310;2024-03-02T03:59:40;1.13;;;1.03;;
53299;SDS011;39187;48.476;8.310;2024-03-02T04:02:05;0.93;;;0.93;;
53299;SDS011;39187;48.476;8.310;2024-03-02T04:04:31;1.40;;;1.20;;
53299;SDS011;39187;48.476;8.310;2024-03-02T04:06:56;1.10;;;1.10;;
53299;SDS011;39187;48.476;8.310;2024-03-02T04:09:22;0.93;;;0.93;;
53299;SDS011;39187;48.476;8.310;2024-03-02T04:11:47;1.27;;;1.00;;
53299;SDS011;39187;48.476;8.310;2024-03-02T04:14:12;1.07;;;1.07;;
53299;SDS011;39187;48.476;8.310;2024-03-02T04:16:38;2.00;;;1.90;;
53299;SDS011;39187;48.476;8.310;2024-03-02T04:19:04;2.30;;;2.20;;
53299;SDS011;39187;48.476;8.310;2024-03-02T04:21:30;2.27;;;1.97;;
53299;SDS011;39187;48.476;8.310;2024-03-02T04:23:55;1.80;;;1.70;;
53299;SDS011;39187;48.476;8.310;2024-03-02T04:26:23;1.17;;;1.17;;
53299;SDS011;39187;48.476;8.310;2024-03-02T04:28:50;1.40;;;1.30;;
53299;SDS011;39187;48.476;8.310;2024-03-02T04:31:16;0.90;;;0.90;;
53299;SDS011;39187;48.476;8.310;2024-03-02T04:33:42;1.13;;;1.13;;
53299;SDS011;39187;48.476;8.310;2024-03-02T04:36:08;0.93;;;0.93;;
53299;SDS011;39187;48.476;8.310;2024-03-02T04:38:37;1.37;;;1.27;;
53299;SDS011;39187;48.476;8.310;2024-03-02T04:41:03;1.20;;;1.10;;
53299;SDS011;39187;48.476;8.310;2024-03-02T04:43:31;3.47;;;1.10;;
53299;SDS011;39187;48.476;8.310;2024-03-02T04:45:57;1.03;;;1.03;;
53299;SDS011;39187;48.476;8.310;2024-03-02T04:48:23;1.17;;;1.17;;
53299;SDS011;39187;48.476;8.310;2024-03-02T04:50:49;1.00;;;1.00;;
53299;SDS011;39187;48.476;8.310;2024-03-02T04:53:14;0.97;;;0.97;;
53299;SDS011;39187;48.476;8.310;2024-03-02T04:55:40;0.93;;;0.90;;
53299;SDS011;39187;48.476;8.310;2024-03-02T04:58:05;1.00;;;0.90;;
53299;SDS011;39187;48.476;8.310;2024-03-02T05:00:31;1.57;;;1.10;;
53299;SDS011;39187;48.476;8.310;2024-03-02T05:02:57;0.90;;;0.90;;
53299;SDS011;39187;48.476;8.310;2024-03-02T05:05:23;2.30;;;1.13;;
53299;SDS011;39187;48.476;8.310;2024-03-02T05:07:48;1.37;;;1.00;;
53299;SDS011;39187;48.476;8.310;2024-03-02T05:10:14;0.80;;;0.80;;
53299;SDS011;39187;48.476;8.310;2024-03-02T05:12:39;1.63;;;0.83;;
53299;SDS011;39187;48.476;8.310;2024-03-02T05:15:08;0.87;;;0.87;;
53299;SDS011;39187;48.476;8.310;2024-03-02T05:17:38;0.60;;;0.60;;
53299;SDS011;39187;48.476;8.310;2024-03-02T05:20:04;0.77;;;0.77;;
53299;SDS011;39187;48.476;8.310;2024-03-02T05:22:32;2.87;;;0.70;;
53299;SDS011;39187;48.476;8.310;2024-03-02T05:24:59;1.37;;;0.70;;
53299;SDS011;39187;48.476;8.310;2024-03-02T05:27:25;1.30;;;0.63;;
53299;SDS011;39187;48.476;8.310;2024-03-02T05:29:51;0.70;;;0.70;;
53299;SDS011;39187;48.476;8.310;2024-03-02T05:32:17;0.80;;;0.80;;
53299;SDS011;39187;48.476;8.310;2024-03-02T05:34:42;1.30;;;1.20;;
53299;SDS011;39187;48.476;8.310;2024-03-02T05:37:08;1.33;;;1.23;;
53299;SDS011;39187;48.476;8.310;2024-03-02T05:39:33;1.10;;;1.10;;
53299;SDS011;39187;48.476;8.310;2024-03-02T05:41:59;0.80;;;0.80;;
53299;SDS011;39187;48.476;8.310;2024-03-02T05:44:24;1.80;;;1.03;;
53299;SDS011;39187;48.476;8.310;2024-03-02T05:46:50;0.90;;;0.90;;
53299;SDS011;39187;48.476;8.310;2024-03-02T05:49:15;1.83;;;0.73;;
53299;SDS011;39187;48.476;8.310;2024-03-02T05:51:41;1.57;;;0.73;;
53299;SDS011;39187;48.476;8.310;2024-03-02T05:54:06;1.03;;;0.97;;
53299;SDS011;39187;48.476;8.310;2024-03-02T05:56:32;0.80;;;0.80;;
53299;SDS011;39187;48.476;8.310;2024-03-02T05:58:58;2.60;;;1.00;;
53299;SDS011;39187;48.476;8.310;2024-03-02T06:01:39;0.90;;;0.90;;
53299;SDS011;39187;48.476;8.310;2024-03-02T06:04:05;1.00;;;1.00;;
53299;SDS011;39187;48.476;8.310;2024-03-02T06:06:31;0.80;;;0.80;;
53299;SDS011;39187;48.476;8.310;2024-03-02T06:09:00;0.87;;;0.80;;
53299;SDS011;39187;48.476;8.310;2024-03-02T06:11:27;0.87;;;0.87;;
53299;SDS011;39187;48.476;8.310;2024-03-02T06:13:53;0.90;;;0.90;;
53299;SDS011;39187;48.476;8.310;2024-03-02T06:16:18;0.90;;;0.90;;
53299;SDS011;39187;48.476;8.310;2024-03-02T06:18:44;1.37;;;1.00;;
53299;SDS011;39187;48.476;8.310;2024-03-02T06:21:10;0.90;;;0.90;;
53299;SDS011;39187;48.476;8.310;2024-03-02T06:23:35;0.73;;;0.73;;
53299;SDS011;39187;48.476;8.310;2024-03-02T06:26:01;0.90;;;0.90;;
53299;SDS011;39187;48.476;8.310;2024-03-02T06:28:27;1.13;;;0.80;;
53299;SDS011;39187;48.476;8.310;2024-03-02T06:30:53;1.57;;;0.87;;
53299;SDS011;39187;48.476;8.310;2024-03-02T06:33:19;0.90;;;0.90;;
53299;SDS011;39187;48.476;8.310;2024-03-02T06:35:44;2.00;;;1.07;;
53299;SDS011;39187;48.476;8.310;2024-03-02T06:38:10;0.80;;;0.80;;
53299;SDS011;39187;48.476;8.310;2024-03-02T06:40:35;0.63;;;0.63;;
53299;SDS011;39187;48.476;8.310;2024-03-02T06:43:03;0.80;;;0.80;;
53299;SDS011;39187;48.476;8.310;2024-03-02T06:45:29;0.80;;;0.80;;
53299;SDS011;39187;48.476;8.310;2024-03-02T06:47:55;0.80;;;0.80;;
53299;SDS011;39187;48.476;8.310;2024-03-02T06:50:21;0.80;;;0.80;;
53299;SDS011;39187;48.476;8.310;2024-03-02T06:52:47;0.60;;;0.60;;
53299;SDS011;39187;48.476;8.310;2024-03-02T06:55:12;0.80;;;0.70;;
53299;SDS011;39187;48.476;8.310;2024-03-02T06:57:38;1.00;;;0.90;;
53299;SDS011;39187;48.476;8.310;2024-03-02T07:00:03;1.70;;;0.90;;
53299;SDS011;39187;48.476;8.310;2024-03-02T07:02:30;1.30;;;0.70;;
53299;SDS011;39187;48.476;8.310;2024-03-02T07:04:56;0.80;;;0.80;;
53299;SDS011;39187;48.476;8.310;2024-03-02T07:07:21;0.90;;;0.90;;
53299;SDS011;39187;48.476;8.310;2024-03-02T07:09:50;0.70;;;0.70;;
53299;SDS011;39187;48.476;8.310;2024-03-02T07:12:15;0.93;;;0.70;;
53299;SDS011;39187;48.476;8.310;2024-03-02T07:14:41;0.70;;;0.70;;
53299;SDS011;39187;48.476;8.310;2024-03-02T07:17:22;1.83;;;1.00;;
53299;SDS011;39187;48.476;8.310;2024-03-02T07:19:47;1.07;;;0.80;;
53299;SDS011;39187;48.476;8.310;2024-03-02T07:22:13;0.70;;;0.70;;
53299;SDS011;39187;48.476;8.310;2024-03-02T07:24:39;0.80;;;0.80;;
53299;SDS011;39187;48.476;8.310;2024-03-02T07:27:08;0.97;;;0.97;;
53299;SDS011;39187;48.476;8.310;2024-03-02T07:29:34;0.80;;;0.80;;
53299;SDS011;39187;48.476;8.310;2024-03-02T07:32:00;0.67;;;0.67;;
53299;SDS011;39187;48.476;8.310;2024-03-02T07:34:26;1.50;;;1.00;;
53299;SDS011;39187;48.476;8.310;2024-03-02T07:36:51;3.23;;;1.20;;
53299;SDS011;39187;48.476;8.310;2024-03-02T07:39:17;0.80;;;0.80;;
53299;SDS011;39187;48.476;8.310;2024-03-02T07:41:44;1.60;;;0.80;;
53299;SDS011;39187;48.476;8.310;2024-03-02T07:44:11;0.83;;;0.83;;
53299;SDS011;39187;48.476;8.310;2024-03-02T07:46:41;2.30;;;0.77;;
53299;SDS011;39187;48.476;8.310;2024-03-02T07:49:07;0.70;;;0.70;;
53299;SDS011;39187;48.476;8.310;2024-03-02T07:51:33;1.03;;;1.03;;
53299;SDS011;39187;48.476;8.310;2024-03-02T07:53:58;0.60;;;0.60;;
53299;SDS011;39187;48.476;8.310;2024-03-02T07:56:24;0.70;;;0.70;;
53299;SDS011;39187;48.476;8.310;2024-03-02T07:58:49;0.57;;;0.57;;
53299;SDS011;39187;48.476;8.310;2024-03-02T08:01:15;1.33;;;0.50;;
53299;SDS011;39187;48.476;8.310;2024-03-02T08:03:42;0.60;;;0.60;;
53299;SDS011;39187;48.476;8.310;2024-03-02T08:06:13;1.73;;;1.63;;
53299;SDS011;39187;48.476;8.310;2024-03-02T08:08:42;1.50;;;1.40;;
53299;SDS011;39187;48.476;8.310;2024-03-02T08:11:07;0.97;;;0.97;;
53299;SDS011;39187;48.476;8.310;2024-03-02T08:13:33;0.90;;;0.90;;
53299;SDS011;39187;48.476;8.310;2024-03-02T08:15:58;0.73;;;0.73;;
53299;SDS011;39187;48.476;8.310;2024-03-02T08:18:24;1.00;;;1.00;;
53299;SDS011;39187;48.476;8.310;2024-03-02T08:20:50;0.60;;;0.53;;
53299;SDS011;39187;48.476;8.310;2024-03-02T08:23:15;0.70;;;0.70;;
53299;SDS011;39187;48.476;8.310;2024-03-02T08:25:41;0.70;;;0.67;;
53299;SDS011;39187;48.476;8.310;2024-03-02T08:28:07;0.60;;;0.60;;
53299;SDS011;39187;48.476;8.310;2024-03-02T08:30:32;0.90;;;0.90;;
53299;SDS011;39187;48.476;8.310;2024-03-02T08:32:58;1.13;;;1.03;;
53299;SDS011;39187;48.476;8.310;2024-03-02T08:35:23;0.60;;;0.60;;
53299;SDS011;39187;48.476;8.310;2024-03-02T08:37:49;0.90;;;0.90;;
53299;SDS011;39187;48.476;8.310;2024-03-02T08:40:15;0.80;;;0.80;;
53299;SDS011;39187;48.476;8.310;2024-03-02T08:42:40;0.70;;;0.70;;
53299;SDS011;39187;48.476;8.310;2024-03-02T08:45:06;1.10;;;1.00;;
53299;SDS011;39187;48.476;8.310;2024-03-02T08:47:32;1.53;;;0.70;;
53299;SDS011;39187;48.476;8.310;2024-03-02T08:49:59;1.17;;;1.07;;
53299;SDS011;39187;48.476;8.310;2024-03-02T08:52:25;0.83;;;0.83;;
53299;SDS011;39187;48.476;8.310;2024-03-02T08:54:51;1.00;;;1.00;;
53299;SDS011;39187;48.476;8.310;2024-03-02T08:57:16;0.83;;;0.83;;
53299;SDS011;39187;48.476;8.310;2024-03-02T08:59:42;1.90;;;0.93;;
53299;SDS011;39187;48.476;8.310;2024-03-02T09:02:07;0.90;;;0.90;;
53299;SDS011;39187;48.476;8.310;2024-03-02T09:04:33;1.00;;;1.00;;
53299;SDS011;39187;48.476;8.310;2024-03-02T09:06:58;0.80;;;0.80;;
53299;SDS011;39187;48.476;8.310;2024-03-02T09:09:24;0.80;;;0.80;;
53299;SDS011;39187;48.476;8.310;2024-03-02T09:11:49;1.40;;;1.20;;
53299;SDS011;39187;48.476;8.310;2024-03-02T09:14:15;1.37;;;0.90;;
53299;SDS011;39187;48.476;8.310;2024-03-02T09:16:40;1.10;;;1.03;;
53299;SDS011;39187;48.476;8.310;2024-03-02T09:19:06;1.77;;;1.27;;
53299;SDS011;39187;48.476;8.310;2024-03-02T09:21:32;0.90;;;0.90;;
53299;SDS011;39187;48.476;8.310;2024-03-02T09:23:57;1.40;;;1.30;;
53299;SDS011;39187;48.476;8.310;2024-03-02T09:26:23;1.50;;;1.40;;
53299;SDS011;39187;48.476;8.310;2024-03-02T09:28:50;2.23;;;2.13;;
53299;SDS011;39187;48.476;8.310;2024-03-02T09:31:15;1.70;;;1.23;;
53299;SDS011;39187;48.476;8.310;2024-03-02T09:33:41;1.30;;;1.20;;
53299;SDS011;39187;48.476;8.310;2024-03-02T09:36:16;1.40;;;1.30;;
53299;SDS011;39187;48.476;8.310;2024-03-02T09:38:45;0.87;;;0.80;;
53299;SDS011;39187;48.476;8.310;2024-03-02T09:41:12;1.20;;;1.10;;
53299;SDS011;39187;48.476;8.310;2024-03-02T09:43:38;1.13;;;0.90;;
53299;SDS011;39187;48.476;8.310;2024-03-02T09:46:04;1.20;;;1.07;;
53299;SDS011;39187;48.476;8.310;2024-03-02T09:48:30;0.97;;;0.97;;
53299;SDS011;39187;48.476;8.310;2024-03-02T09:50:55;0.90;;;0.90;;
53299;SDS011;39187;48.476;8.310;2024-03-02T09:53:22;6.50;;;1.10;;
53299;SDS011;39187;48.476;8.310;2024-03-02T09:55:48;0.93;;;0.93;;
53299;SDS011;39187;48.476;8.310;2024-03-02T09:58:14;1.13;;;0.80;;
53299;SDS011;39187;48.476;8.310;2024-03-02T10:00:39;0.70;;;0.70;;
53299;SDS011;39187;48.476;8.310;2024-03-02T10:03:05;0.83;;;0.83;;
53299;SDS011;39187;48.476;8.310;2024-03-02T10:05:37;0.70;;;0.70;;
53299;SDS011;39187;48.476;8.310;2024-03-02T10:08:02;0.87;;;0.87;;
53299;SDS011;39187;48.476;8.310;2024-03-02T10:10:38;0.60;;;0.60;;
53299;SDS011;39187;48.476;8.310;2024-03-02T10:13:05;0.93;;;0.93;;
53299;SDS011;39187;48.476;8.310;2024-03-02T10:15:32;1.07;;;1.03;;
53299;SDS011;39187;48.476;8.310;2024-03-02T10:17:58;0.90;;;0.77;;
53299;SDS011;39187;48.476;8.310;2024-03-02T10:20:25;0.87;;;0.87;;
53299;SDS011;39187;48.476;8.310;2024-03-02T10:22:53;0.77;;;0.67;;
53299;SDS011;39187;48.476;8.310;2024-03-02T10:25:31;1.20;;;0.93;;
53299;SDS011;39187;48.476;8.310;2024-03-02T10:28:00;0.80;;;0.80;;
53299;SDS011;39187;48.476;8.310;2024-03-02T10:30:26;0.70;;;0.70;;
53299;SDS011;39187;48.476;8.310;2024-03-02T10:32:53;0.80;;;0.80;;
53299;SDS011;39187;48.476;8.310;2024-03-02T10:35:22;0.90;;;0.77;;
53299;SDS011;39187;48.476;8.310;2024-03-02T10:37:51;0.70;;;0.70;;
53299;SDS011;39187;48.476;8.310;2024-03-02T10:40:17;0.70;;;0.70;;
53299;SDS011;39187;48.476;8.310;2024-03-02T10:42:43;1.67;;;0.97;;
53299;SDS011;39187;48.476;8.310;2024-03-02T10:45:10;0.60;;;0.60;;
53299;SDS011;39187;48.476;8.310;2024-03-02T10:47:38;2.10;;;0.60;;
53299;SDS011;39187;48.476;8.310;2024-03-02T10:50:06;0.97;;;0.60;;
53299;SDS011;39187;48.476;8.310;2024-03-02T10:52:36;0.60;;;0.60;;
53299;SDS011;39187;48.476;8.310;2024-03-02T10:55:08;0.60;;;0.60;;
53299;SDS011;39187;48.476;8.310;2024-03-02T10:57:41;0.77;;;0.70;;
53299;SDS011;39187;48.476;8.310;2024-03-02T11:00:11;1.33;;;1.13;;
53299;SDS011;39187;48.476;8.310;2024-03-02T11:02:58;0.90;;;0.90;;
53299;SDS011;39187;48.476;8.310;2024-03-02T11:05:36;0.80;;;0.80;;
53299;SDS011;39187;48.476;8.310;2024-03-02T11:08:07;0.70;;;0.70;;
53299;SDS011;39187;48.476;8.310;2024-03-02T11:10:48;0.60;;;0.60;;
53299;SDS011;39187;48.476;8.310;2024-03-02T11:13:16;0.50;;;0.50;;
53299;SDS011;39187;48.476;8.310;2024-03-02T11:15:49;0.87;;;0.87;;
53299;SDS011;39187;48.476;8.310;2024-03-02T11:18:20;0.60;;;0.60;;
53299;SDS011;39187;48.476;8.310;2024-03-02T11:20:46;0.87;;;0.83;;
53299;SDS011;39187;48.476;8.310;2024-03-02T11:23:12;0.50;;;0.50;;
53299;SDS011;39187;48.476;8.310;2024-03-02T11:25:39;0.90;;;0.90;;
53299;SDS011;39187;48.476;8.310;2024-03-02T11:28:07;0.80;;;0.70;;
53299;SDS011;39187;48.476;8.310;2024-03-02T11:33:07;0.73;;;0.70;;
53299;SDS011;39187;48.476;8.310;2024-03-02T11:35:33;0.70;;;0.70;;
53299;SDS011;39187;48.476;8.310;2024-03-02T11:38:04;1.53;;;0.70;;
53299;SDS011;39187;48.476;8.310;2024-03-02T11:40:32;0.90;;;0.90;;
53299;SDS011;39187;48.476;8.310;2024-03-02T11:42:58;0.83;;;0.83;;
53299;SDS011;39187;48.476;8.310;2024-03-02T11:45:25;1.50;;;0.70;;
53299;SDS011;39187;48.476;8.310;2024-03-02T11:47:55;1.90;;;0.70;;
53299;SDS011;39187;48.476;8.310;2024-03-02T11:50:34;0.73;;;0.73;;
53299;SDS011;39187;48.476;8.310;2024-03-02T11:53:08;1.10;;;0.70;;
53299;SDS011;39187;48.476;8.310;2024-03-02T11:55:35;0.80;;;0.80;;
53299;SDS011;39187;48.476;8.310;2024-03-02T11:58:02;1.23;;;0.67;;
53299;SDS011;39187;48.476;8.310;2024-03-02T12:00:31;0.70;;;0.70;;
53299;SDS011;39187;48.476;8.310;2024-03-02T12:03:00;0.80;;;0.80;;
53299;SDS011;39187;48.476;8.310;2024-03-02T12:05:33;1.10;;;0.80;;
53299;SDS011;39187;48.476;8.310;2024-03-02T12:08:04;1.93;;;1.00;;
53299;SDS011;39187;48.476;8.310;2024-03-02T12:10:31;1.10;;;1.10;;
53299;SDS011;39187;48.476;8.310;2024-03-02T12:12:58;1.00;;;1.00;;
53299;SDS011;39187;48.476;8.310;2024-03-02T12:15:28;0.67;;;0.67;;
53299;SDS011;39187;48.476;8.310;2024-03-02T12:17:56;0.90;;;0.90;;
53299;SDS011;39187;48.476;8.310;2024-03-02T12:20:26;1.20;;;1.10;;
53299;SDS011;39187;48.476;8.310;2024-03-02T12:22:54;1.17;;;1.07;;
53299;SDS011;39187;48.476;8.310;2024-03-02T12:25:23;1.80;;;1.70;;
53299;SDS011;39187;48.476;8.310;2024-03-02T12:27:50;1.23;;;1.13;;
53299;SDS011;39187;48.476;8.310;2024-03-02T12:30:17;1.00;;;1.00;;
53299;SDS011;39187;48.476;8.310;2024-03-02T12:32:46;1.47;;;1.37;;
53299;SDS011;39187;48.476;8.310;2024-03-02T12:35:13;0.90;;;0.90;;
53299;SDS011;39187;48.476;8.310;2024-03-02T12:37:45;1.27;;;1.17;;
53299;SDS011;39187;48.476;8.310;2024-03-02T12:40:12;2.47;;;1.17;;
53299;SDS011;39187;48.476;8.310;2024-03-02T12:42:39;1.10;;;1.10;;
53299;SDS011;39187;48.476;8.310;2024-03-02T12:45:05;0.93;;;0.90;;
53299;SDS011;39187;48.476;8.310;2024-03-02T12:47:32;1.30;;;1.20;;
53299;SDS011;39187;48.476;8.310;2024-03-02T12:50:01;0.93;;;0.93;;
53299;SDS011;39187;48.476;8.310;2024-03-02T12:52:28;2.03;;;0.97;;
53299;SDS011;39187;48.476;8.310;2024-03-02T12:54:53;1.10;;;1.10;;
53299;SDS011;39187;48.476;8.310;2024-03-02T12:57:26;0.87;;;0.87;;
53299;SDS011;39187;48.476;8.310;2024-03-02T12:59:56;0.80;;;0.80;;
53299;SDS011;39187;48.476;8.310;2024-03-02T13:02:29;0.97;;;0.97;;
53299;SDS011;39187;48.476;8.310;2024-03-02T13:04:56;0.77;;;0.77;;
53299;SDS011;39187;48.476;8.310;2024-03-02T13:07:25;1.37;;;1.27;;
53299;SDS011;39187;48.476;8.310;2024-03-02T13:09:51;0.93;;;0.90;;
53299;SDS011;39187;48.476;8.310;2024-03-02T13:12:19;0.87;;;0.87;;
53299;SDS011;39187;48.476;8.310;2024-03-02T13:14:47;0.90;;;0.90;;
53299;SDS011;39187;48.476;8.310;2024-03-02T13:17:15;1.70;;;1.40;;
53299;SDS011;39187;48.476;8.310;2024-03-02T13:19:53;1.30;;;1.20;;
53299;SDS011;39187;48.476;8.310;2024-03-02T13:22:20;1.07;;;1.07;;
53299;SDS011;39187;48.476;8.310;2024-03-02T13:24:47;1.43;;;1.00;;
53299;SDS011;39187;48.476;8.310;2024-03-02T13:27:13;1.20;;;1.10;;
53299;SDS011;39187;48.476;8.310;2024-03-02T13:29:39;1.70;;;1.60;;
53299;SDS011;39187;48.476;8.310;2024-03-02T13:32:04;1.40;;;1.30;;
53299;SDS011;39187;48.476;8.310;2024-03-02T13:34:30;1.37;;;1.30;;
53299;SDS011;39187;48.476;8.310;2024-03-02T13:36:55;1.70;;;1.60;;
53299;SDS011;39187;48.476;8.310;2024-03-02T13:39:21;1.13;;;1.13;;
53299;SDS011;39187;48.476;8.310;2024-03-02T13:41:46;1.07;;;1.07;;
53299;SDS011;39187;48.476;8.310;2024-03-02T13:44:20;1.50;;;1.40;;
53299;SDS011;39187;48.476;8.310;2024-03-02T13:46:46;1.53;;;1.43;;
53299;SDS011;39187;48.476;8.310;2024-03-02T13:49:13;1.50;;;1.40;;
53299;SDS011;39187;48.476;8.310;2024-03-02T13:51:39;4.70;;;1.57;;
53299;SDS011;39187;48.476;8.310;2024-03-02T13:54:05;1.30;;;1.20;;
53299;SDS011;39187;48.476;8.310;2024-03-02T13:56:30;1.93;;;1.83;;
53299;SDS011;39187;48.476;8.310;2024-03-02T13:58:57;1.90;;;1.80;;
53299;SDS011;39187;48.476;8.310;2024-03-02T14:01:23;1.10;;;1.10;;
53299;SDS011;39187;48.476;8.310;2024-03-02T14:03:49;1.87;;;1.43;;
53299;SDS011;39187;48.476;8.310;2024-03-02T14:06:15;3.50;;;1.53;;
53299;SDS011;39187;48.476;8.310;2024-03-02T14:08:41;1.43;;;1.33;;
53299;SDS011;39187;48.476;8.310;2024-03-02T14:11:09;2.40;;;2.30;;
53299;SDS011;39187;48.476;8.310;2024-03-02T14:13:39;1.50;;;1.40;;
53299;SDS011;39187;48.476;8.310;2024-03-02T14:16:06;2.00;;;1.90;;
53299;SDS011;39187;48.476;8.310;2024-03-02T14:18:31;1.40;;;1.30;;
53299;SDS011;39187;48.476;8.310;2024-03-02T14:20:57;1.25;;;1.15;;
53299;SDS011;39187;48.476;8.310;2024-03-02T14:23:22;1.27;;;1.23;;
53299;SDS011;39187;48.476;8.310;2024-03-02T14:25:48;1.90;;;1.80;;
53299;SDS011;39187;48.476;8.310;2024-03-02T14:28:13;1.87;;;1.77;;
53299;SDS011;39187;48.476;8.310;2024-03-02T14:30:41;2.00;;;1.90;;
53299;SDS011;39187;48.476;8.310;2024-03-02T14:33:07;1.80;;;1.70;;
53299;SDS011;39187;48.476;8.310;2024-03-02T14:35:32;1.60;;;1.50;;
53299;SDS011;39187;48.476;8.310;2024-03-02T14:37:58;1.20;;;1.10;;
53299;SDS011;39187;48.476;8.310;2024-03-02T14:40:23;1.63;;;1.53;;
53299;SDS011;39187;48.476;8.310;2024-03-02T14:42:52;2.03;;;1.93;;
53299;SDS011;39187;48.476;8.310;2024-03-02T14:45:17;1.47;;;1.37;;
53299;SDS011;39187;48.476;8.310;2024-03-02T14:47:43;1.77;;;1.67;;
53299;SDS011;39187;48.476;8.310;2024-03-02T14:50:09;2.10;;;1.80;;